sensor_id;sensor_type;location;lat;lon;timestamp;P1;durP1;ratioP1;P2;durP2;ratioP2
13244;SDS011;6689;53.400;12.486;2023-08-30T00:00:33;7.28;;;3.10;;
13244;SDS011;6689;53.400;12.486;2023-08-30T00:03:00;7.90;;;3.53;;
13244;SDS011;6689;53.400;12.486;2023-08-30T00:05:28;6.53;;;3.22;;
13244;SDS011;6689;53.400;12.486;2023-08-30T00:07:55;3.92;;;2.80;;
13244;SDS011;6689;53.400;12.486;2023-08-30T00:10:23;4.13;;;3.10;;
13244;SDS011;6689;53.400;12.486;2023-08-30T00:12:52;4.78;;;2.60;;
13244;SDS011;6689;53.400;12.486;2023-08-30T00:15:20;3.50;;;1.90;;
13244;SDS011;6689;53.400;12.486;2023-08-30T00:17:47;3.83;;;2.47;;
13244;SDS011;6689;53.400;12.486;2023-08-30T00:20:17;4.05;;;2.40;;
13244;SDS011;6689;53.400;12.486;2023-08-30T00:22:44;3.70;;;2.90;;
13244;SDS011;6689;53.400;12.486;2023-08-30T00:25:12;5.63;;;3.00;;
13244;SDS011;6689;53.400;12.486;2023-08-30T00:27:39;5.85;;;3.20;;
13244;SDS011;6689;53.400;12.486;2023-08-30T00:30:09;4.25;;;3.20;;
13244;SDS011;6689;53.400;12.486;2023-08-30T00:32:37;4.07;;;3.22;;
13244;SDS011;6689;53.400;12.486;2023-08-30T00:35:05;4.18;;;3.30;;
13244;SDS011;6689;53.400;12.486;2023-08-30T00:37:35;5.75;;;3.50;;
13244;SDS011;6689;53.400;12.486;2023-08-30T00:40:02;5.40;;;3.58;;
13244;SDS011;6689;53.400;12.486;2023-08-30T00:42:31;7.13;;;3.40;;
13244;SDS011;6689;53.400;12.486;2023-08-30T00:44:59;5.72;;;3.80;;
13244;SDS011;6689;53.400;12.486;2023-08-30T00:47:28;4.78;;;2.92;;
13244;SDS011;6689;53.400;12.486;2023-08-30T00:49:55;3.30;;;2.78;;
13244;SDS011;6689;53.400;12.486;2023-08-30T00:52:23;2.65;;;2.17;;
13244;SDS011;6689;53.400;12.486;2023-08-30T00:54:50;5.93;;;3.67;;
13244;SDS011;6689;53.400;12.486;2023-08-30T00:57:18;4.93;;;2.38;;
13244;SDS011;6689;53.400;12.486;2023-08-30T00:59:45;3.58;;;2.58;;
13244;SDS011;6689;53.400;12.486;2023-08-30T01:02:13;3.50;;;2.50;;
13244;SDS011;6689;53.400;12.486;2023-08-30T01:04:43;3.17;;;2.40;;
13244;SDS011;6689;53.400;12.486;2023-08-30T01:07:11;3.10;;;2.78;;
13244;SDS011;6689;53.400;12.486;2023-08-30T01:09:39;5.95;;;3.80;;
13244;SDS011;6689;53.400;12.486;2023-08-30T01:12:08;4.05;;;2.97;;
13244;SDS011;6689;53.400;12.486;2023-08-30T01:14:40;4.82;;;3.33;;
13244;SDS011;6689;53.400;12.486;2023-08-30T01:17:11;4.85;;;2.95;;
13244;SDS011;6689;53.400;12.486;2023-08-30T01:19:47;6.00;;;3.53;;
13244;SDS011;6689;53.400;12.486;2023-08-30T01:22:27;4.05;;;3.03;;
13244;SDS011;6689;53.400;12.486;2023-08-30T01:25:09;6.35;;;3.60;;
13244;SDS011;6689;53.400;12.486;2023-08-30T01:27:45;6.28;;;3.38;;
13244;SDS011;6689;53.400;12.486;2023-08-30T01:30:14;4.50;;;3.00;;
13244;SDS011;6689;53.400;12.486;2023-08-30T01:32:43;5.10;;;3.17;;
13244;SDS011;6689;53.400;12.486;2023-08-30T01:35:11;4.57;;;3.88;;
13244;SDS011;6689;53.400;12.486;2023-08-30T01:37:42;4.88;;;3.38;;
13244;SDS011;6689;53.400;12.486;2023-08-30T01:40:11;7.70;;;3.58;;
13244;SDS011;6689;53.400;12.486;2023-08-30T01:42:41;6.13;;;3.80;;
13244;SDS011;6689;53.400;12.486;2023-08-30T01:45:12;4.97;;;3.38;;
13244;SDS011;6689;53.400;12.486;2023-08-30T01:47:41;5.85;;;3.90;;
13244;SDS011;6689;53.400;12.486;2023-08-30T01:50:10;4.28;;;3.58;;
13244;SDS011;6689;53.400;12.486;2023-08-30T01:52:38;6.40;;;3.53;;
13244;SDS011;6689;53.400;12.486;2023-08-30T01:55:07;3.97;;;3.30;;
13244;SDS011;6689;53.400;12.486;2023-08-30T01:57:36;5.18;;;3.10;;
13244;SDS011;6689;53.400;12.486;2023-08-30T02:00:03;7.20;;;3.63;;
13244;SDS011;6689;53.400;12.486;2023-08-30T02:02:34;6.68;;;2.95;;
13244;SDS011;6689;53.400;12.486;2023-08-30T02:05:01;3.50;;;2.53;;
13244;SDS011;6689;53.400;12.486;2023-08-30T02:07:33;5.85;;;3.25;;
13244;SDS011;6689;53.400;12.486;2023-08-30T02:10:08;3.58;;;2.65;;
13244;SDS011;6689;53.400;12.486;2023-08-30T02:12:39;2.90;;;2.40;;
13244;SDS011;6689;53.400;12.486;2023-08-30T02:15:12;3.40;;;2.55;;
13244;SDS011;6689;53.400;12.486;2023-08-30T02:17:43;2.95;;;2.65;;
13244;SDS011;6689;53.400;12.486;2023-08-30T02:20:11;3.40;;;2.60;;
13244;SDS011;6689;53.400;12.486;2023-08-30T02:22:39;2.80;;;2.28;;
13244;SDS011;6689;53.400;12.486;2023-08-30T02:25:06;6.40;;;2.50;;
13244;SDS011;6689;53.400;12.486;2023-08-30T02:27:35;4.25;;;2.38;;
13244;SDS011;6689;53.400;12.486;2023-08-30T02:30:02;3.63;;;2.60;;
13244;SDS011;6689;53.400;12.486;2023-08-30T02:32:30;3.83;;;2.67;;
13244;SDS011;6689;53.400;12.486;2023-08-30T02:34:59;4.70;;;2.85;;
13244;SDS011;6689;53.400;12.486;2023-08-30T02:37:26;3.85;;;2.65;;
13244;SDS011;6689;53.400;12.486;2023-08-30T02:39:54;3.20;;;2.42;;
13244;SDS011;6689;53.400;12.486;2023-08-30T02:42:21;4.05;;;2.70;;
13244;SDS011;6689;53.400;12.486;2023-08-30T02:44:50;4.13;;;2.70;;
13244;SDS011;6689;53.400;12.486;2023-08-30T02:47:17;3.40;;;2.22;;
13244;SDS011;6689;53.400;12.486;2023-08-30T02:49:46;2.50;;;2.05;;
13244;SDS011;6689;53.400;12.486;2023-08-30T02:52:16;2.58;;;2.10;;
13244;SDS011;6689;53.400;12.486;2023-08-30T02:54:44;3.17;;;2.08;;
13244;SDS011;6689;53.400;12.486;2023-08-30T02:57:11;2.67;;;2.13;;
13244;SDS011;6689;53.400;12.486;2023-08-30T02:59:38;3.13;;;2.60;;
13244;SDS011;6689;53.400;12.486;2023-08-30T03:02:06;7.10;;;3.80;;
13244;SDS011;6689;53.400;12.486;2023-08-30T03:04:33;4.63;;;3.55;;
13244;SDS011;6689;53.400;12.486;2023-08-30T03:07:00;6.03;;;3.85;;
13244;SDS011;6689;53.400;12.486;2023-08-30T03:09:29;5.07;;;3.40;;
13244;SDS011;6689;53.400;12.486;2023-08-30T03:11:56;7.45;;;3.97;;
13244;SDS011;6689;53.400;12.486;2023-08-30T03:14:23;5.70;;;3.95;;
13244;SDS011;6689;53.400;12.486;2023-08-30T03:16:50;4.38;;;3.75;;
13244;SDS011;6689;53.400;12.486;2023-08-30T03:19:18;7.97;;;4.68;;
13244;SDS011;6689;53.400;12.486;2023-08-30T03:21:45;5.90;;;3.72;;
13244;SDS011;6689;53.400;12.486;2023-08-30T03:24:13;5.68;;;3.53;;
13244;SDS011;6689;53.400;12.486;2023-08-30T03:26:43;6.93;;;4.00;;
13244;SDS011;6689;53.400;12.486;2023-08-30T03:29:11;5.38;;;3.92;;
13244;SDS011;6689;53.400;12.486;2023-08-30T03:31:38;5.22;;;4.13;;
13244;SDS011;6689;53.400;12.486;2023-08-30T03:34:06;4.63;;;4.22;;
13244;SDS011;6689;53.400;12.486;2023-08-30T03:36:33;5.05;;;4.05;;
13244;SDS011;6689;53.400;12.486;2023-08-30T03:39:00;7.30;;;4.32;;
13244;SDS011;6689;53.400;12.486;2023-08-30T03:41:28;5.85;;;4.40;;
13244;SDS011;6689;53.400;12.486;2023-08-30T03:43:56;8.95;;;5.30;;
13244;SDS011;6689;53.400;12.486;2023-08-30T03:46:24;7.03;;;4.45;;
13244;SDS011;6689;53.400;12.486;2023-08-30T03:48:51;4.68;;;4.20;;
13244;SDS011;6689;53.400;12.486;2023-08-30T03:51:18;6.78;;;4.88;;
13244;SDS011;6689;53.400;12.486;2023-08-30T03:53:46;5.85;;;4.68;;
13244;SDS011;6689;53.400;12.486;2023-08-30T03:56:13;5.20;;;4.30;;
13244;SDS011;6689;53.400;12.486;2023-08-30T03:58:40;5.88;;;4.78;;
13244;SDS011;6689;53.400;12.486;2023-08-30T04:01:09;5.80;;;4.75;;
13244;SDS011;6689;53.400;12.486;2023-08-30T04:03:36;6.07;;;4.15;;
13244;SDS011;6689;53.400;12.486;2023-08-30T04:06:03;6.70;;;4.60;;
13244;SDS011;6689;53.400;12.486;2023-08-30T04:08:31;5.57;;;4.43;;
13244;SDS011;6689;53.400;12.486;2023-08-30T04:10:58;5.25;;;4.63;;
13244;SDS011;6689;53.400;12.486;2023-08-30T04:13:25;6.15;;;4.25;;
13244;SDS011;6689;53.400;12.486;2023-08-30T04:15:53;4.93;;;3.65;;
13244;SDS011;6689;53.400;12.486;2023-08-30T04:18:23;7.47;;;4.10;;
13244;SDS011;6689;53.400;12.486;2023-08-30T04:20:50;4.72;;;4.15;;
13244;SDS011;6689;53.400;12.486;2023-08-30T04:23:17;6.85;;;4.30;;
13244;SDS011;6689;53.400;12.486;2023-08-30T04:25:45;6.30;;;4.90;;
13244;SDS011;6689;53.400;12.486;2023-08-30T04:28:12;5.03;;;4.53;;
13244;SDS011;6689;53.400;12.486;2023-08-30T04:30:39;7.80;;;4.32;;
13244;SDS011;6689;53.400;12.486;2023-08-30T04:33:07;4.95;;;4.25;;
13244;SDS011;6689;53.400;12.486;2023-08-30T04:35:36;7.10;;;4.57;;
13244;SDS011;6689;53.400;12.486;2023-08-30T04:38:04;5.68;;;4.38;;
13244;SDS011;6689;53.400;12.486;2023-08-30T04:40:32;5.15;;;4.65;;
13244;SDS011;6689;53.400;12.486;2023-08-30T04:42:59;6.88;;;4.40;;
13244;SDS011;6689;53.400;12.486;2023-08-30T04:45:27;7.25;;;4.60;;
13244;SDS011;6689;53.400;12.486;2023-08-30T04:47:55;6.00;;;4.70;;
13244;SDS011;6689;53.400;12.486;2023-08-30T04:50:22;9.73;;;5.47;;
13244;SDS011;6689;53.400;12.486;2023-08-30T04:52:51;6.85;;;5.18;;
13244;SDS011;6689;53.400;12.486;2023-08-30T04:55:18;8.27;;;5.57;;
13244;SDS011;6689;53.400;12.486;2023-08-30T04:57:45;7.30;;;5.45;;
13244;SDS011;6689;53.400;12.486;2023-08-30T05:00:13;6.22;;;4.93;;
13244;SDS011;6689;53.400;12.486;2023-08-30T05:02:41;5.35;;;4.60;;
13244;SDS011;6689;53.400;12.486;2023-08-30T05:05:09;4.30;;;3.90;;
13244;SDS011;6689;53.400;12.486;2023-08-30T05:07:36;4.78;;;4.32;;
13244;SDS011;6689;53.400;12.486;2023-08-30T05:10:05;7.95;;;5.03;;
13244;SDS011;6689;53.400;12.486;2023-08-30T05:12:34;7.68;;;5.13;;
13244;SDS011;6689;53.400;12.486;2023-08-30T05:15:01;5.25;;;4.65;;
13244;SDS011;6689;53.400;12.486;2023-08-30T05:17:29;5.78;;;4.20;;
13244;SDS011;6689;53.400;12.486;2023-08-30T05:19:56;5.57;;;4.63;;
13244;SDS011;6689;53.400;12.486;2023-08-30T05:22:23;6.88;;;4.72;;
13244;SDS011;6689;53.400;12.486;2023-08-30T05:24:51;5.95;;;4.28;;
13244;SDS011;6689;53.400;12.486;2023-08-30T05:27:19;7.25;;;4.40;;
13244;SDS011;6689;53.400;12.486;2023-08-30T05:29:47;6.72;;;5.03;;
13244;SDS011;6689;53.400;12.486;2023-08-30T05:32:14;5.63;;;4.47;;
13244;SDS011;6689;53.400;12.486;2023-08-30T05:34:41;5.35;;;4.82;;
13244;SDS011;6689;53.400;12.486;2023-08-30T05:37:08;5.72;;;5.15;;
13244;SDS011;6689;53.400;12.486;2023-08-30T05:39:36;5.90;;;4.78;;
13244;SDS011;6689;53.400;12.486;2023-08-30T05:42:03;7.53;;;5.40;;
13244;SDS011;6689;53.400;12.486;2023-08-30T05:44:33;6.38;;;4.90;;
13244;SDS011;6689;53.400;12.486;2023-08-30T05:47:00;7.93;;;4.53;;
13244;SDS011;6689;53.400;12.486;2023-08-30T05:49:27;5.82;;;4.65;;
13244;SDS011;6689;53.400;12.486;2023-08-30T05:51:54;6.70;;;5.30;;
13244;SDS011;6689;53.400;12.486;2023-08-30T05:54:21;5.65;;;4.68;;
13244;SDS011;6689;53.400;12.486;2023-08-30T05:56:53;6.47;;;4.50;;
13244;SDS011;6689;53.400;12.486;2023-08-30T05:59:20;5.47;;;4.95;;
13244;SDS011;6689;53.400;12.486;2023-08-30T06:01:49;7.93;;;5.03;;
13244;SDS011;6689;53.400;12.486;2023-08-30T06:04:16;6.65;;;5.13;;
13244;SDS011;6689;53.400;12.486;2023-08-30T06:06:43;6.60;;;5.15;;
13244;SDS011;6689;53.400;12.486;2023-08-30T06:09:10;7.32;;;5.45;;
13244;SDS011;6689;53.400;12.486;2023-08-30T06:11:38;7.70;;;5.93;;
13244;SDS011;6689;53.400;12.486;2023-08-30T06:14:05;6.20;;;4.95;;
13244;SDS011;6689;53.400;12.486;2023-08-30T06:16:33;8.30;;;6.15;;
13244;SDS011;6689;53.400;12.486;2023-08-30T06:19:01;8.93;;;5.28;;
13244;SDS011;6689;53.400;12.486;2023-08-30T06:21:29;6.55;;;5.78;;
13244;SDS011;6689;53.400;12.486;2023-08-30T06:23:56;6.55;;;5.35;;
13244;SDS011;6689;53.400;12.486;2023-08-30T06:26:23;6.15;;;5.15;;
13244;SDS011;6689;53.400;12.486;2023-08-30T06:28:50;6.53;;;5.40;;
13244;SDS011;6689;53.400;12.486;2023-08-30T06:31:18;7.55;;;5.20;;
13244;SDS011;6689;53.400;12.486;2023-08-30T06:33:45;7.95;;;5.57;;
13244;SDS011;6689;53.400;12.486;2023-08-30T06:36:15;7.43;;;5.40;;
13244;SDS011;6689;53.400;12.486;2023-08-30T06:38:42;6.93;;;5.97;;
13244;SDS011;6689;53.400;12.486;2023-08-30T06:41:09;10.23;;;6.30;;
13244;SDS011;6689;53.400;12.486;2023-08-30T06:43:37;10.65;;;6.70;;
13244;SDS011;6689;53.400;12.486;2023-08-30T06:46:05;7.32;;;6.32;;
13244;SDS011;6689;53.400;12.486;2023-08-30T06:48:32;8.93;;;6.78;;
13244;SDS011;6689;53.400;12.486;2023-08-30T06:51:01;7.20;;;6.22;;
13244;SDS011;6689;53.400;12.486;2023-08-30T06:53:29;8.70;;;6.95;;
13244;SDS011;6689;53.400;12.486;2023-08-30T06:55:57;8.25;;;7.38;;
13244;SDS011;6689;53.400;12.486;2023-08-30T06:58:25;10.70;;;7.22;;
13244;SDS011;6689;53.400;12.486;2023-08-30T07:00:52;6.30;;;5.70;;
13244;SDS011;6689;53.400;12.486;2023-08-30T07:03:20;8.02;;;7.22;;
13244;SDS011;6689;53.400;12.486;2023-08-30T07:05:47;9.25;;;7.65;;
13244;SDS011;6689;53.400;12.486;2023-08-30T07:08:14;14.30;;;7.75;;
13244;SDS011;6689;53.400;12.486;2023-08-30T07:10:43;7.97;;;7.18;;
13244;SDS011;6689;53.400;12.486;2023-08-30T07:13:10;7.38;;;6.40;;
13244;SDS011;6689;53.400;12.486;2023-08-30T07:15:38;11.18;;;8.48;;
13244;SDS011;6689;53.400;12.486;2023-08-30T07:18:06;10.52;;;7.13;;
13244;SDS011;6689;53.400;12.486;2023-08-30T07:20:33;7.68;;;6.88;;
13244;SDS011;6689;53.400;12.486;2023-08-30T07:23:01;8.65;;;7.38;;
13244;SDS011;6689;53.400;12.486;2023-08-30T07:25:29;9.88;;;7.68;;
13244;SDS011;6689;53.400;12.486;2023-08-30T07:27:59;9.75;;;7.05;;
13244;SDS011;6689;53.400;12.486;2023-08-30T07:30:26;8.68;;;7.18;;
13244;SDS011;6689;53.400;12.486;2023-08-30T07:32:54;8.40;;;7.60;;
13244;SDS011;6689;53.400;12.486;2023-08-30T07:35:22;10.20;;;7.75;;
13244;SDS011;6689;53.400;12.486;2023-08-30T07:37:49;10.18;;;7.60;;
13244;SDS011;6689;53.400;12.486;2023-08-30T07:40:16;10.27;;;7.20;;
13244;SDS011;6689;53.400;12.486;2023-08-30T07:42:44;9.32;;;8.07;;
13244;SDS011;6689;53.400;12.486;2023-08-30T07:45:13;8.80;;;7.45;;
13244;SDS011;6689;53.400;12.486;2023-08-30T07:47:40;13.30;;;7.85;;
13244;SDS011;6689;53.400;12.486;2023-08-30T07:50:08;8.80;;;7.68;;
13244;SDS011;6689;53.400;12.486;2023-08-30T07:52:38;10.43;;;6.50;;
13244;SDS011;6689;53.400;12.486;2023-08-30T07:55:09;9.15;;;7.60;;
13244;SDS011;6689;53.400;12.486;2023-08-30T07:57:36;10.20;;;7.70;;
13244;SDS011;6689;53.400;12.486;2023-08-30T08:00:03;10.35;;;7.13;;
13244;SDS011;6689;53.400;12.486;2023-08-30T08:02:34;17.33;;;8.38;;
13244;SDS011;6689;53.400;12.486;2023-08-30T08:05:01;10.05;;;8.23;;
13244;SDS011;6689;53.400;12.486;2023-08-30T08:07:28;10.63;;;8.48;;
13244;SDS011;6689;53.400;12.486;2023-08-30T08:09:56;12.27;;;8.73;;
13244;SDS011;6689;53.400;12.486;2023-08-30T08:12:25;12.52;;;8.68;;
13244;SDS011;6689;53.400;12.486;2023-08-30T08:14:52;10.10;;;8.02;;
13244;SDS011;6689;53.400;12.486;2023-08-30T08:17:20;8.45;;;7.32;;
13244;SDS011;6689;53.400;12.486;2023-08-30T08:19:48;10.25;;;7.85;;
13244;SDS011;6689;53.400;12.486;2023-08-30T08:22:15;7.80;;;7.00;;
13244;SDS011;6689;53.400;12.486;2023-08-30T08:24:43;8.20;;;7.20;;
13244;SDS011;6689;53.400;12.486;2023-08-30T08:27:11;7.72;;;6.95;;
13244;SDS011;6689;53.400;12.486;2023-08-30T08:29:39;9.63;;;7.78;;
13244;SDS011;6689;53.400;12.486;2023-08-30T08:32:06;7.32;;;6.50;;
13244;SDS011;6689;53.400;12.486;2023-08-30T08:34:34;7.68;;;5.97;;
13244;SDS011;6689;53.400;12.486;2023-08-30T08:37:02;8.80;;;6.32;;
13244;SDS011;6689;53.400;12.486;2023-08-30T08:39:30;7.40;;;6.60;;
13244;SDS011;6689;53.400;12.486;2023-08-30T08:41:57;8.13;;;7.00;;
13244;SDS011;6689;53.400;12.486;2023-08-30T08:44:26;10.60;;;5.93;;
13244;SDS011;6689;53.400;12.486;2023-08-30T08:46:58;7.80;;;6.25;;
13244;SDS011;6689;53.400;12.486;2023-08-30T08:49:28;7.38;;;5.10;;
13244;SDS011;6689;53.400;12.486;2023-08-30T08:51:56;4.90;;;4.35;;
13244;SDS011;6689;53.400;12.486;2023-08-30T08:54:25;7.57;;;5.45;;
13244;SDS011;6689;53.400;12.486;2023-08-30T08:56:52;6.38;;;4.47;;
13244;SDS011;6689;53.400;12.486;2023-08-30T08:59:21;9.93;;;4.85;;
13244;SDS011;6689;53.400;12.486;2023-08-30T09:01:49;6.95;;;4.70;;
13244;SDS011;6689;53.400;12.486;2023-08-30T09:04:17;6.68;;;4.65;;
13244;SDS011;6689;53.400;12.486;2023-08-30T09:06:45;4.85;;;3.67;;
13244;SDS011;6689;53.400;12.486;2023-08-30T09:09:12;7.72;;;3.88;;
13244;SDS011;6689;53.400;12.486;2023-08-30T09:11:42;8.40;;;4.00;;
13244;SDS011;6689;53.400;12.486;2023-08-30T09:14:09;6.90;;;4.47;;
13244;SDS011;6689;53.400;12.486;2023-08-30T09:16:36;7.60;;;4.60;;
13244;SDS011;6689;53.400;12.486;2023-08-30T09:19:04;9.60;;;4.25;;
13244;SDS011;6689;53.400;12.486;2023-08-30T09:21:32;5.68;;;3.10;;
13244;SDS011;6689;53.400;12.486;2023-08-30T09:24:00;4.63;;;3.92;;
13244;SDS011;6689;53.400;12.486;2023-08-30T09:26:29;4.82;;;4.32;;
13244;SDS011;6689;53.400;12.486;2023-08-30T09:29:02;5.60;;;4.20;;
13244;SDS011;6689;53.400;12.486;2023-08-30T09:31:33;4.40;;;3.15;;
13244;SDS011;6689;53.400;12.486;2023-08-30T09:34:01;4.05;;;2.83;;
13244;SDS011;6689;53.400;12.486;2023-08-30T09:36:35;6.15;;;3.55;;
13244;SDS011;6689;53.400;12.486;2023-08-30T09:39:04;6.30;;;3.47;;
13244;SDS011;6689;53.400;12.486;2023-08-30T09:41:34;4.50;;;3.20;;
13244;SDS011;6689;53.400;12.486;2023-08-30T09:44:08;4.75;;;3.20;;
13244;SDS011;6689;53.400;12.486;2023-08-30T09:46:40;3.55;;;2.90;;
13244;SDS011;6689;53.400;12.486;2023-08-30T09:49:11;6.28;;;3.20;;
13244;SDS011;6689;53.400;12.486;2023-08-30T09:51:39;4.85;;;3.00;;
13244;SDS011;6689;53.400;12.486;2023-08-30T09:54:10;3.97;;;2.97;;
13244;SDS011;6689;53.400;12.486;2023-08-30T09:56:41;5.32;;;3.20;;
13244;SDS011;6689;53.400;12.486;2023-08-30T09:59:10;4.63;;;3.78;;
13244;SDS011;6689;53.400;12.486;2023-08-30T10:01:39;6.00;;;3.75;;
13244;SDS011;6689;53.400;12.486;2023-08-30T10:04:10;7.45;;;3.22;;
13244;SDS011;6689;53.400;12.486;2023-08-30T10:06:37;5.30;;;3.45;;
13244;SDS011;6689;53.400;12.486;2023-08-30T10:09:06;5.82;;;4.10;;
13244;SDS011;6689;53.400;12.486;2023-08-30T10:11:35;4.72;;;3.55;;
13244;SDS011;6689;53.400;12.486;2023-08-30T10:14:03;4.28;;;3.13;;
13244;SDS011;6689;53.400;12.486;2023-08-30T10:16:35;3.22;;;2.45;;
13244;SDS011;6689;53.400;12.486;2023-08-30T10:19:09;3.20;;;2.40;;
13244;SDS011;6689;53.400;12.486;2023-08-30T10:21:37;5.15;;;2.60;;
13244;SDS011;6689;53.400;12.486;2023-08-30T10:24:07;5.13;;;2.50;;
13244;SDS011;6689;53.400;12.486;2023-08-30T10:26:37;4.28;;;2.70;;
13244;SDS011;6689;53.400;12.486;2023-08-30T10:29:06;4.25;;;2.22;;
13244;SDS011;6689;53.400;12.486;2023-08-30T10:31:39;5.43;;;2.45;;
13244;SDS011;6689;53.400;12.486;2023-08-30T10:34:12;3.15;;;2.20;;
13244;SDS011;6689;53.400;12.486;2023-08-30T10:36:42;5.93;;;2.63;;
13244;SDS011;6689;53.400;12.486;2023-08-30T10:39:13;3.55;;;2.25;;
13244;SDS011;6689;53.400;12.486;2023-08-30T10:44:24;3.28;;;2.40;;
13244;SDS011;6689;53.400;12.486;2023-08-30T10:46:53;3.28;;;2.67;;
13244;SDS011;6689;53.400;12.486;2023-08-30T10:49:21;5.18;;;2.30;;
13244;SDS011;6689;53.400;12.486;2023-08-30T10:51:55;3.08;;;2.38;;
13244;SDS011;6689;53.400;12.486;2023-08-30T10:54:24;4.28;;;2.72;;
13244;SDS011;6689;53.400;12.486;2023-08-30T10:56:54;2.97;;;2.30;;
13244;SDS011;6689;53.400;12.486;2023-08-30T10:59:24;2.88;;;2.00;;
13244;SDS011;6689;53.400;12.486;2023-08-30T11:01:53;2.22;;;1.92;;
13244;SDS011;6689;53.400;12.486;2023-08-30T11:04:22;3.63;;;2.28;;
13244;SDS011;6689;53.400;12.486;2023-08-30T11:06:51;3.95;;;1.88;;
13244;SDS011;6689;53.400;12.486;2023-08-30T11:09:19;4.93;;;2.10;;
13244;SDS011;6689;53.400;12.486;2023-08-30T11:11:47;2.17;;;1.70;;
13244;SDS011;6689;53.400;12.486;2023-08-30T11:14:16;3.65;;;2.30;;
13244;SDS011;6689;53.400;12.486;2023-08-30T11:16:44;5.72;;;2.10;;
13244;SDS011;6689;53.400;12.486;2023-08-30T11:19:13;3.08;;;1.88;;
13244;SDS011;6689;53.400;12.486;2023-08-30T11:21:43;3.85;;;2.20;;
13244;SDS011;6689;53.400;12.486;2023-08-30T11:24:11;5.95;;;2.22;;
13244;SDS011;6689;53.400;12.486;2023-08-30T11:26:39;3.67;;;2.40;;
13244;SDS011;6689;53.400;12.486;2023-08-30T11:29:06;4.82;;;2.50;;
13244;SDS011;6689;53.400;12.486;2023-08-30T11:31:35;4.20;;;2.22;;
13244;SDS011;6689;53.400;12.486;2023-08-30T11:34:02;4.70;;;2.08;;
13244;SDS011;6689;53.400;12.486;2023-08-30T11:36:32;5.40;;;2.78;;
13244;SDS011;6689;53.400;12.486;2023-08-30T11:39:02;3.45;;;2.15;;
13244;SDS011;6689;53.400;12.486;2023-08-30T11:41:30;3.22;;;2.10;;
13244;SDS011;6689;53.400;12.486;2023-08-30T11:43:58;2.40;;;2.03;;
13244;SDS011;6689;53.400;12.486;2023-08-30T11:46:26;3.42;;;2.08;;
13244;SDS011;6689;53.400;12.486;2023-08-30T11:48:53;3.30;;;2.53;;
13244;SDS011;6689;53.400;12.486;2023-08-30T11:51:21;3.88;;;2.70;;
13244;SDS011;6689;53.400;12.486;2023-08-30T11:53:50;2.67;;;2.22;;
13244;SDS011;6689;53.400;12.486;2023-08-30T11:56:18;2.22;;;2.03;;
13244;SDS011;6689;53.400;12.486;2023-08-30T11:58:45;3.20;;;2.20;;
13244;SDS011;6689;53.400;12.486;2023-08-30T12:01:13;6.43;;;2.15;;
13244;SDS011;6689;53.400;12.486;2023-08-30T12:03:41;3.53;;;2.22;;
13244;SDS011;6689;53.400;12.486;2023-08-30T12:06:12;3.38;;;2.13;;
13244;SDS011;6689;53.400;12.486;2023-08-30T12:08:39;5.13;;;2.53;;
13244;SDS011;6689;53.400;12.486;2023-08-30T12:11:16;3.60;;;2.08;;
13244;SDS011;6689;53.400;12.486;2023-08-30T12:13:44;3.85;;;2.25;;
13244;SDS011;6689;53.400;12.486;2023-08-30T12:16:15;3.45;;;2.45;;
13244;SDS011;6689;53.400;12.486;2023-08-30T12:18:43;3.50;;;2.90;;
13244;SDS011;6689;53.400;12.486;2023-08-30T12:21:11;6.00;;;2.40;;
13244;SDS011;6689;53.400;12.486;2023-08-30T12:23:40;4.20;;;2.65;;
13244;SDS011;6689;53.400;12.486;2023-08-30T12:26:10;4.18;;;2.30;;
13244;SDS011;6689;53.400;12.486;2023-08-30T12:28:37;6.85;;;2.92;;
13244;SDS011;6689;53.400;12.486;2023-08-30T12:31:05;5.85;;;2.40;;
13244;SDS011;6689;53.400;12.486;2023-08-30T12:33:33;3.63;;;2.17;;
13244;SDS011;6689;53.400;12.486;2023-08-30T12:36:01;3.15;;;2.13;;
13244;SDS011;6689;53.400;12.486;2023-08-30T12:38:29;6.68;;;3.00;;
13244;SDS011;6689;53.400;12.486;2023-08-30T12:40:57;5.03;;;3.00;;
13244;SDS011;6689;53.400;12.486;2023-08-30T12:43:26;4.18;;;2.40;;
13244;SDS011;6689;53.400;12.486;2023-08-30T12:45:53;3.92;;;2.08;;
13244;SDS011;6689;53.400;12.486;2023-08-30T12:48:21;3.30;;;2.30;;
13244;SDS011;6689;53.400;12.486;2023-08-30T12:50:48;2.90;;;2.25;;
13244;SDS011;6689;53.400;12.486;2023-08-30T12:53:15;3.78;;;1.90;;
13244;SDS011;6689;53.400;12.486;2023-08-30T12:55:43;2.67;;;2.00;;
13244;SDS011;6689;53.400;12.486;2023-08-30T12:58:10;2.85;;;1.85;;
13244;SDS011;6689;53.400;12.486;2023-08-30T13:00:40;3.05;;;1.70;;
13244;SDS011;6689;53.400;12.486;2023-08-30T13:03:07;2.65;;;1.60;;
13244;SDS011;6689;53.400;12.486;2023-08-30T13:05:35;2.53;;;1.90;;
13244;SDS011;6689;53.400;12.486;2023-08-30T13:08:03;3.67;;;2.20;;
13244;SDS011;6689;53.400;12.486;2023-08-30T13:10:31;3.55;;;1.90;;
13244;SDS011;6689;53.400;12.486;2023-08-30T13:12:59;2.88;;;2.40;;
13244;SDS011;6689;53.400;12.486;2023-08-30T13:15:26;3.03;;;2.00;;
13244;SDS011;6689;53.400;12.486;2023-08-30T13:17:55;2.40;;;2.00;;
13244;SDS011;6689;53.400;12.486;2023-08-30T13:20:22;3.47;;;2.30;;
13244;SDS011;6689;53.400;12.486;2023-08-30T13:22:49;2.65;;;2.20;;
13244;SDS011;6689;53.400;12.486;2023-08-30T13:25:17;3.40;;;2.42;;
13244;SDS011;6689;53.400;12.486;2023-08-30T13:27:44;3.50;;;2.22;;
13244;SDS011;6689;53.400;12.486;2023-08-30T13:30:14;2.67;;;2.05;;
13244;SDS011;6689;53.400;12.486;2023-08-30T13:32:42;3.10;;;2.10;;
13244;SDS011;6689;53.400;12.486;2023-08-30T13:35:13;3.90;;;2.85;;
13244;SDS011;6689;53.400;12.486;2023-08-30T13:37:40;2.88;;;2.15;;
13244;SDS011;6689;53.400;12.486;2023-08-30T13:40:09;6.75;;;2.30;;
13244;SDS011;6689;53.400;12.486;2023-08-30T13:42:37;3.42;;;1.83;;
13244;SDS011;6689;53.400;12.486;2023-08-30T13:45:04;3.38;;;2.22;;
13244;SDS011;6689;53.400;12.486;2023-08-30T13:47:34;2.72;;;1.90;;
13244;SDS011;6689;53.400;12.486;2023-08-30T13:50:02;3.15;;;2.15;;
13244;SDS011;6689;53.400;12.486;2023-08-30T13:52:32;2.88;;;1.95;;
13244;SDS011;6689;53.400;12.486;2023-08-30T13:54:59;3.42;;;2.17;;
13244;SDS011;6689;53.400;12.486;2023-08-30T13:57:26;2.20;;;1.88;;
13244;SDS011;6689;53.400;12.486;2023-08-30T13:59:54;5.35;;;2.15;;
13244;SDS011;6689;53.400;12.486;2023-08-30T14:02:22;3.75;;;2.25;;
13244;SDS011;6689;53.400;12.486;2023-08-30T14:04:50;3.10;;;2.00;;
13244;SDS011;6689;53.400;12.486;2023-08-30T14:07:17;4.45;;;2.25;;
13244;SDS011;6689;53.400;12.486;2023-08-30T14:09:48;3.13;;;2.38;;
13244;SDS011;6689;53.400;12.486;2023-08-30T14:12:15;4.00;;;2.10;;
13244;SDS011;6689;53.400;12.486;2023-08-30T14:14:43;2.92;;;1.95;;
13244;SDS011;6689;53.400;12.486;2023-08-30T14:17:11;9.10;;;2.28;;
13244;SDS011;6689;53.400;12.486;2023-08-30T14:19:38;3.20;;;2.30;;
13244;SDS011;6689;53.400;12.486;2023-08-30T14:22:06;3.33;;;2.10;;
13244;SDS011;6689;53.400;12.486;2023-08-30T14:24:33;6.63;;;3.08;;
13244;SDS011;6689;53.400;12.486;2023-08-30T14:27:03;4.22;;;3.05;;
13244;SDS011;6689;53.400;12.486;2023-08-30T14:29:30;6.00;;;2.92;;
13244;SDS011;6689;53.400;12.486;2023-08-30T14:31:58;3.33;;;2.65;;
13244;SDS011;6689;53.400;12.486;2023-08-30T14:34:26;4.15;;;2.70;;
13244;SDS011;6689;53.400;12.486;2023-08-30T14:36:54;4.75;;;3.40;;
13244;SDS011;6689;53.400;12.486;2023-08-30T14:39:22;4.53;;;3.10;;
13244;SDS011;6689;53.400;12.486;2023-08-30T14:41:49;3.67;;;2.80;;
13244;SDS011;6689;53.400;12.486;2023-08-30T14:44:18;4.07;;;2.70;;
13244;SDS011;6689;53.400;12.486;2023-08-30T14:46:46;3.83;;;3.25;;
13244;SDS011;6689;53.400;12.486;2023-08-30T14:49:14;6.53;;;3.85;;
13244;SDS011;6689;53.400;12.486;2023-08-30T14:51:42;8.73;;;6.15;;
13244;SDS011;6689;53.400;12.486;2023-08-30T14:54:09;4.28;;;3.45;;
13244;SDS011;6689;53.400;12.486;2023-08-30T14:56:37;3.30;;;2.92;;